sensor_id;sensor_type;location;lat;lon;timestamp;temperature;humidity
18281;DHT22;9266;51.132;17.062;2022-08-19T00:01:20;24.60;1.00
18281;DHT22;9266;51.132;17.062;2022-08-19T00:03:48;24.60;1.00
18281;DHT22;9266;51.132;17.062;2022-08-19T00:06:16;24.60;1.00
18281;DHT22;9266;51.132;17.062;2022-08-19T00:08:43;24.50;1.00
18281;DHT22;9266;51.132;17.062;2022-08-19T00:11:11;24.50;21.00
18281;DHT22;9266;51.132;17.062;2022-08-19T00:13:39;24.50;99.90
18281;DHT22;9266;51.132;17.062;2022-08-19T00:16:07;24.40;99.90
18281;DHT22;9266;51.132;17.062;2022-08-19T00:18:34;24.40;99.90
18281;DHT22;9266;51.132;17.062;2022-08-19T00:21:02;24.30;99.90
18281;DHT22;9266;51.132;17.062;2022-08-19T00:23:34;24.30;99.90
18281;DHT22;9266;51.132;17.062;2022-08-19T00:26:02;24.30;99.90
18281;DHT22;9266;51.132;17.062;2022-08-19T00:28:31;24.20;1.00
18281;DHT22;9266;51.132;17.062;2022-08-19T00:30:58;24.10;1.00
18281;DHT22;9266;51.132;17.062;2022-08-19T00:33:25;24.10;1.00
18281;DHT22;9266;51.132;17.062;2022-08-19T00:35:54;24.10;1.00
18281;DHT22;9266;51.132;17.062;2022-08-19T00:38:21;24.00;1.00
18281;DHT22;9266;51.132;17.062;2022-08-19T00:40:48;24.00;1.00
18281;DHT22;9266;51.132;17.062;2022-08-19T00:43:19;23.90;1.00
18281;DHT22;9266;51.132;17.062;2022-08-19T00:45:49;23.90;1.00
18281;DHT22;9266;51.132;17.062;2022-08-19T00:48:17;23.80;68.80
18281;DHT22;9266;51.132;17.062;2022-08-19T00:50:46;23.80;99.90
18281;DHT22;9266;51.132;17.062;2022-08-19T00:53:16;23.80;99.90
18281;DHT22;9266;51.132;17.062;2022-08-19T00:55:46;23.70;99.90
18281;DHT22;9266;51.132;17.062;2022-08-19T00:58:17;23.70;99.90
18281;DHT22;9266;51.132;17.062;2022-08-19T01:00:45;23.70;1.00
18281;DHT22;9266;51.132;17.062;2022-08-19T01:03:19;23.70;1.00
18281;DHT22;9266;51.132;17.062;2022-08-19T01:05:48;23.70;1.00
18281;DHT22;9266;51.132;17.062;2022-08-19T01:08:17;23.80;1.00
18281;DHT22;9266;51.132;17.062;2022-08-19T01:10:49;23.70;1.00
18281;DHT22;9266;51.132;17.062;2022-08-19T01:13:19;23.70;35.90
18281;DHT22;9266;51.132;17.062;2022-08-19T01:15:47;23.50;1.00
18281;DHT22;9266;51.132;17.062;2022-08-19T01:18:19;23.40;1.00
18281;DHT22;9266;51.132;17.062;2022-08-19T01:20:47;23.40;1.00
18281;DHT22;9266;51.132;17.062;2022-08-19T01:23:16;23.40;1.00
18281;DHT22;9266;51.132;17.062;2022-08-19T01:25:45;23.50;1.00
18281;DHT22;9266;51.132;17.062;2022-08-19T01:28:17;23.40;1.00
18281;DHT22;9266;51.132;17.062;2022-08-19T01:30:45;23.40;1.00
18281;DHT22;9266;51.132;17.062;2022-08-19T01:33:12;23.30;99.90
18281;DHT22;9266;51.132;17.062;2022-08-19T01:35:40;23.30;99.90
18281;DHT22;9266;51.132;17.062;2022-08-19T01:38:10;23.30;1.00
18281;DHT22;9266;51.132;17.062;2022-08-19T01:40:46;23.20;1.00
18281;DHT22;9266;51.132;17.062;2022-08-19T01:43:14;23.20;1.00
18281;DHT22;9266;51.132;17.062;2022-08-19T01:45:41;23.20;1.00
18281;DHT22;9266;51.132;17.062;2022-08-19T01:48:08;23.10;1.00
18281;DHT22;9266;51.132;17.062;2022-08-19T01:50:36;23.10;1.00
18281;DHT22;9266;51.132;17.062;2022-08-19T01:53:06;23.20;1.00
18281;DHT22;9266;51.132;17.062;2022-08-19T01:55:36;23.10;1.00
18281;DHT22;9266;51.132;17.062;2022-08-19T01:58:06;23.10;86.80
18281;DHT22;9266;51.132;17.062;2022-08-19T02:00:34;23.10;99.90
18281;DHT22;9266;51.132;17.062;2022-08-19T02:03:01;23.00;99.90
18281;DHT22;9266;51.132;17.062;2022-08-19T02:05:28;22.90;1.00
18281;DHT22;9266;51.132;17.062;2022-08-19T02:07:56;22.90;1.00
18281;DHT22;9266;51.132;17.062;2022-08-19T02:10:23;22.90;1.00
18281;DHT22;9266;51.132;17.062;2022-08-19T02:12:50;22.80;1.00
18281;DHT22;9266;51.132;17.062;2022-08-19T02:15:20;22.80;1.00
18281;DHT22;9266;51.132;17.062;2022-08-19T02:17:47;22.70;99.90
18281;DHT22;9266;51.132;17.062;2022-08-19T02:20:14;22.70;99.90
18281;DHT22;9266;51.132;17.062;2022-08-19T02:22:42;22.70;99.90
18281;DHT22;9266;51.132;17.062;2022-08-19T02:25:10;22.70;99.90
18281;DHT22;9266;51.132;17.062;2022-08-19T02:27:37;22.60;99.90
18281;DHT22;9266;51.132;17.062;2022-08-19T02:30:07;22.60;99.90
18281;DHT22;9266;51.132;17.062;2022-08-19T02:32:36;22.50;1.00
18281;DHT22;9266;51.132;17.062;2022-08-19T02:35:03;22.50;1.00
18281;DHT22;9266;51.132;17.062;2022-08-19T02:37:31;22.50;1.00
18281;DHT22;9266;51.132;17.062;2022-08-19T02:40:15;22.50;91.60
18281;DHT22;9266;51.132;17.062;2022-08-19T02:42:43;22.40;99.90
18281;DHT22;9266;51.132;17.062;2022-08-19T02:45:12;22.40;99.90
18281;DHT22;9266;51.132;17.062;2022-08-19T02:47:41;22.40;99.90
18281;DHT22;9266;51.132;17.062;2022-08-19T02:50:08;22.40;99.90
18281;DHT22;9266;51.132;17.062;2022-08-19T02:52:35;22.30;1.00
18281;DHT22;9266;51.132;17.062;2022-08-19T02:55:04;22.20;1.00
18281;DHT22;9266;51.132;17.062;2022-08-19T02:57:31;22.20;1.00
18281;DHT22;9266;51.132;17.062;2022-08-19T02:59:59;22.20;1.00
18281;DHT22;9266;51.132;17.062;2022-08-19T03:02:26;22.10;43.90
18281;DHT22;9266;51.132;17.062;2022-08-19T03:04:55;22.10;99.90
18281;DHT22;9266;51.132;17.062;2022-08-19T03:07:22;22.10;99.90
18281;DHT22;9266;51.132;17.062;2022-08-19T03:09:49;22.00;1.00
18281;DHT22;9266;51.132;17.062;2022-08-19T03:12:16;22.00;1.00
18281;DHT22;9266;51.132;17.062;2022-08-19T03:14:43;22.00;1.00
18281;DHT22;9266;51.132;17.062;2022-08-19T03:17:11;22.00;1.00
18281;DHT22;9266;51.132;17.062;2022-08-19T03:19:38;21.90;1.00
18281;DHT22;9266;51.132;17.062;2022-08-19T03:22:06;21.90;1.00
18281;DHT22;9266;51.132;17.062;2022-08-19T03:24:33;21.90;1.00
18281;DHT22;9266;51.132;17.062;2022-08-19T03:27:00;21.90;99.90
18281;DHT22;9266;51.132;17.062;2022-08-19T03:29:31;21.90;99.90
18281;DHT22;9266;51.132;17.062;2022-08-19T03:31:58;21.80;99.90
18281;DHT22;9266;51.132;17.062;2022-08-19T03:34:29;21.80;99.90
18281;DHT22;9266;51.132;17.062;2022-08-19T03:36:58;21.80;99.90
18281;DHT22;9266;51.132;17.062;2022-08-19T03:39:27;21.80;1.00
18281;DHT22;9266;51.132;17.062;2022-08-19T03:41:55;21.70;1.00
18281;DHT22;9266;51.132;17.062;2022-08-19T03:44:25;21.60;1.00
18281;DHT22;9266;51.132;17.062;2022-08-19T03:46:54;21.60;1.00
18281;DHT22;9266;51.132;17.062;2022-08-19T03:49:23;21.60;1.00
18281;DHT22;9266;51.132;17.062;2022-08-19T03:51:51;21.60;1.00
18281;DHT22;9266;51.132;17.062;2022-08-19T03:54:20;21.60;1.00
18281;DHT22;9266;51.132;17.062;2022-08-19T03:56:51;21.60;1.00
18281;DHT22;9266;51.132;17.062;2022-08-19T03:59:20;21.60;1.00
18281;DHT22;9266;51.132;17.062;2022-08-19T04:01:52;21.60;1.00
18281;DHT22;9266;51.132;17.062;2022-08-19T04:04:19;21.60;1.00
18281;DHT22;9266;51.132;17.062;2022-08-19T04:06:47;21.60;99.90
18281;DHT22;9266;51.132;17.062;2022-08-19T04:09:14;21.70;84.30
18281;DHT22;9266;51.132;17.062;2022-08-19T04:11:43;21.70;94.00
18281;DHT22;9266;51.132;17.062;2022-08-19T04:14:14;21.90;1.00
18281;DHT22;9266;51.132;17.062;2022-08-19T04:16:42;22.00;1.00
18281;DHT22;9266;51.132;17.062;2022-08-19T04:19:10;22.10;1.00
18281;DHT22;9266;51.132;17.062;2022-08-19T04:21:37;22.30;1.00
18281;DHT22;9266;51.132;17.062;2022-08-19T04:24:05;22.40;99.90
18281;DHT22;9266;51.132;17.062;2022-08-19T04:26:34;22.60;36.60
18281;DHT22;9266;51.132;17.062;2022-08-19T04:29:06;22.70;1.00
18281;DHT22;9266;51.132;17.062;2022-08-19T04:31:35;23.00;99.90
18281;DHT22;9266;51.132;17.062;2022-08-19T04:34:04;23.30;1.00
18281;DHT22;9266;51.132;17.062;2022-08-19T04:36:33;23.40;1.00
18281;DHT22;9266;51.132;17.062;2022-08-19T04:39:03;23.60;99.90
18281;DHT22;9266;51.132;17.062;2022-08-19T04:41:30;23.90;1.00
18281;DHT22;9266;51.132;17.062;2022-08-19T04:44:15;24.20;99.90
18281;DHT22;9266;51.132;17.062;2022-08-19T04:46:45;24.40;1.00
18281;DHT22;9266;51.132;17.062;2022-08-19T04:49:13;24.60;1.00
18281;DHT22;9266;51.132;17.062;2022-08-19T04:51:41;24.80;99.90
18281;DHT22;9266;51.132;17.062;2022-08-19T04:54:09;25.00;24.60
18281;DHT22;9266;51.132;17.062;2022-08-19T04:56:36;25.20;1.00
18281;DHT22;9266;51.132;17.062;2022-08-19T04:59:03;25.20;1.00
18281;DHT22;9266;51.132;17.062;2022-08-19T05:01:32;25.30;1.00
18281;DHT22;9266;51.132;17.062;2022-08-19T05:04:01;25.30;1.00
18281;DHT22;9266;51.132;17.062;2022-08-19T05:06:30;25.40;1.00
18281;DHT22;9266;51.132;17.062;2022-08-19T05:08:58;25.40;99.90
18281;DHT22;9266;51.132;17.062;2022-08-19T05:11:28;25.30;99.90
18281;DHT22;9266;51.132;17.062;2022-08-19T05:13:56;25.40;99.90
18281;DHT22;9266;51.132;17.062;2022-08-19T05:16:24;25.40;99.90
18281;DHT22;9266;51.132;17.062;2022-08-19T05:18:52;25.40;99.90
18281;DHT22;9266;51.132;17.062;2022-08-19T05:21:40;25.40;99.90
18281;DHT22;9266;51.132;17.062;2022-08-19T05:24:25;25.70;99.90
18281;DHT22;9266;51.132;17.062;2022-08-19T05:26:53;25.90;99.90
18281;DHT22;9266;51.132;17.062;2022-08-19T05:29:23;26.00;99.90
18281;DHT22;9266;51.132;17.062;2022-08-19T05:31:52;26.00;1.00
18281;DHT22;9266;51.132;17.062;2022-08-19T05:34:21;26.00;1.00
18281;DHT22;9266;51.132;17.062;2022-08-19T05:36:50;26.20;1.00
18281;DHT22;9266;51.132;17.062;2022-08-19T05:39:24;26.40;1.00
18281;DHT22;9266;51.132;17.062;2022-08-19T05:41:54;26.30;1.00
18281;DHT22;9266;51.132;17.062;2022-08-19T05:44:23;26.30;1.00
18281;DHT22;9266;51.132;17.062;2022-08-19T05:46:51;26.20;1.00
18281;DHT22;9266;51.132;17.062;2022-08-19T05:49:21;26.20;1.00
18281;DHT22;9266;51.132;17.062;2022-08-19T05:51:50;26.40;1.00
18281;DHT22;9266;51.132;17.062;2022-08-19T05:54:17;26.40;1.00
18281;DHT22;9266;51.132;17.062;2022-08-19T05:56:45;26.80;99.90
18281;DHT22;9266;51.132;17.062;2022-08-19T05:59:14;27.00;99.90
18281;DHT22;9266;51.132;17.062;2022-08-19T06:01:44;26.90;99.90
18281;DHT22;9266;51.132;17.062;2022-08-19T06:04:12;26.70;99.90
18281;DHT22;9266;51.132;17.062;2022-08-19T06:06:40;27.50;14.40
18281;DHT22;9266;51.132;17.062;2022-08-19T06:09:11;27.50;88.90
18281;DHT22;9266;51.132;17.062;2022-08-19T06:11:41;27.60;1.00
18281;DHT22;9266;51.132;17.062;2022-08-19T06:14:11;27.60;1.00
18281;DHT22;9266;51.132;17.062;2022-08-19T06:16:42;27.50;1.00
18281;DHT22;9266;51.132;17.062;2022-08-19T06:19:12;27.40;1.00
18281;DHT22;9266;51.132;17.062;2022-08-19T06:21:46;27.10;1.00
18281;DHT22;9266;51.132;17.062;2022-08-19T06:24:17;28.00;1.00
18281;DHT22;9266;51.132;17.062;2022-08-19T06:26:48;28.20;1.00
18281;DHT22;9266;51.132;17.062;2022-08-19T06:29:19;28.80;1.00
18281;DHT22;9266;51.132;17.062;2022-08-19T06:31:48;29.20;22.60
18281;DHT22;9266;51.132;17.062;2022-08-19T06:34:18;29.60;1.00
18281;DHT22;9266;51.132;17.062;2022-08-19T06:36:47;29.30;1.00
18281;DHT22;9266;51.132;17.062;2022-08-19T06:39:21;29.50;1.00
18281;DHT22;9266;51.132;17.062;2022-08-19T06:41:51;29.60;1.00
18281;DHT22;9266;51.132;17.062;2022-08-19T06:44:19;30.50;99.90
18281;DHT22;9266;51.132;17.062;2022-08-19T06:46:47;30.90;1.00
18281;DHT22;9266;51.132;17.062;2022-08-19T06:49:15;31.20;1.00
18281;DHT22;9266;51.132;17.062;2022-08-19T06:51:43;31.00;1.00
18281;DHT22;9266;51.132;17.062;2022-08-19T06:54:15;30.90;99.90
18281;DHT22;9266;51.132;17.062;2022-08-19T06:56:42;31.00;99.90
18281;DHT22;9266;51.132;17.062;2022-08-19T06:59:12;31.00;99.90
18281;DHT22;9266;51.132;17.062;2022-08-19T07:01:41;30.70;99.90
18281;DHT22;9266;51.132;17.062;2022-08-19T07:04:13;31.20;99.90
18281;DHT22;9266;51.132;17.062;2022-08-19T07:06:41;31.50;99.90
18281;DHT22;9266;51.132;17.062;2022-08-19T07:09:10;31.50;99.90
18281;DHT22;9266;51.132;17.062;2022-08-19T07:11:43;31.90;99.90
18281;DHT22;9266;51.132;17.062;2022-08-19T07:14:11;32.60;1.00
18281;DHT22;9266;51.132;17.062;2022-08-19T07:16:39;32.50;1.00
18281;DHT22;9266;51.132;17.062;2022-08-19T07:19:07;32.90;1.00
18281;DHT22;9266;51.132;17.062;2022-08-19T07:21:38;33.30;1.00
18281;DHT22;9266;51.132;17.062;2022-08-19T07:24:06;34.30;1.00
18281;DHT22;9266;51.132;17.062;2022-08-19T07:26:40;34.00;99.90
18281;DHT22;9266;51.132;17.062;2022-08-19T07:29:08;33.30;99.90
18281;DHT22;9266;51.132;17.062;2022-08-19T07:31:36;32.60;99.90
18281;DHT22;9266;51.132;17.062;2022-08-19T07:34:07;32.70;99.90
18281;DHT22;9266;51.132;17.062;2022-08-19T07:36:41;32.10;99.90
18281;DHT22;9266;51.132;17.062;2022-08-19T07:39:12;32.40;99.90
18281;DHT22;9266;51.132;17.062;2022-08-19T07:41:40;32.70;99.90
18281;DHT22;9266;51.132;17.062;2022-08-19T07:44:08;33.70;99.90
18281;DHT22;9266;51.132;17.062;2022-08-19T07:46:38;33.90;99.90
18281;DHT22;9266;51.132;17.062;2022-08-19T07:49:10;34.40;99.90
18281;DHT22;9266;51.132;17.062;2022-08-19T07:51:47;34.80;99.90
18281;DHT22;9266;51.132;17.062;2022-08-19T07:54:14;35.00;99.90
18281;DHT22;9266;51.132;17.062;2022-08-19T07:56:45;34.90;99.90
18281;DHT22;9266;51.132;17.062;2022-08-19T07:59:12;34.50;99.90
18281;DHT22;9266;51.132;17.062;2022-08-19T08:01:40;34.20;94.70
18281;DHT22;9266;51.132;17.062;2022-08-19T08:04:07;33.90;43.60
18281;DHT22;9266;51.132;17.062;2022-08-19T08:06:52;33.40;33.80
18281;DHT22;9266;51.132;17.062;2022-08-19T08:09:39;32.80;1.00
18281;DHT22;9266;51.132;17.062;2022-08-19T08:12:10;32.70;1.00
18281;DHT22;9266;51.132;17.062;2022-08-19T08:14:40;32.90;1.00
18281;DHT22;9266;51.132;17.062;2022-08-19T08:17:09;32.70;1.00
18281;DHT22;9266;51.132;17.062;2022-08-19T08:19:37;32.50;1.00
18281;DHT22;9266;51.132;17.062;2022-08-19T08:22:05;32.30;1.00
18281;DHT22;9266;51.132;17.062;2022-08-19T08:24:33;32.00;1.00
18281;DHT22;9266;51.132;17.062;2022-08-19T08:27:03;31.70;1.00
18281;DHT22;9266;51.132;17.062;2022-08-19T08:29:34;31.90;1.00
18281;DHT22;9266;51.132;17.062;2022-08-19T08:32:02;32.60;1.00
18281;DHT22;9266;51.132;17.062;2022-08-19T08:34:38;33.90;3.30
18281;DHT22;9266;51.132;17.062;2022-08-19T08:37:04;34.00;2.00
18281;DHT22;9266;51.132;17.062;2022-08-19T08:39:32;33.50;1.00
18281;DHT22;9266;51.132;17.062;2022-08-19T08:42:11;34.70;1.00
18281;DHT22;9266;51.132;17.062;2022-08-19T08:44:46;33.60;1.00
18281;DHT22;9266;51.132;17.062;2022-08-19T08:47:19;32.50;1.00
18281;DHT22;9266;51.132;17.062;2022-08-19T08:49:49;32.50;1.00
18281;DHT22;9266;51.132;17.062;2022-08-19T08:52:22;33.00;1.00
18281;DHT22;9266;51.132;17.062;2022-08-19T08:54:52;31.90;1.00
18281;DHT22;9266;51.132;17.062;2022-08-19T08:57:26;31.40;1.00
18281;DHT22;9266;51.132;17.062;2022-08-19T08:59:57;32.20;1.00
18281;DHT22;9266;51.132;17.062;2022-08-19T09:02:25;33.40;1.00
18281;DHT22;9266;51.132;17.062;2022-08-19T09:04:54;33.30;1.00
18281;DHT22;9266;51.132;17.062;2022-08-19T09:07:29;33.70;1.00
18281;DHT22;9266;51.132;17.062;2022-08-19T09:10:06;33.30;1.00
18281;DHT22;9266;51.132;17.062;2022-08-19T09:12:47;33.20;1.00
18281;DHT22;9266;51.132;17.062;2022-08-19T09:15:25;33.50;1.00
18281;DHT22;9266;51.132;17.062;2022-08-19T09:17:59;33.90;1.00
18281;DHT22;9266;51.132;17.062;2022-08-19T09:20:27;33.50;1.00
18281;DHT22;9266;51.132;17.062;2022-08-19T09:22:54;33.10;1.00
18281;DHT22;9266;51.132;17.062;2022-08-19T09:25:22;32.70;1.00
18281;DHT22;9266;51.132;17.062;2022-08-19T09:27:52;32.50;1.00
18281;DHT22;9266;51.132;17.062;2022-08-19T09:30:24;32.30;1.00
18281;DHT22;9266;51.132;17.062;2022-08-19T09:32:52;32.00;1.00
18281;DHT22;9266;51.132;17.062;2022-08-19T09:35:21;31.50;1.00
18281;DHT22;9266;51.132;17.062;2022-08-19T09:37:49;31.00;1.00
18281;DHT22;9266;51.132;17.062;2022-08-19T09:40:17;31.20;1.00
18281;DHT22;9266;51.132;17.062;2022-08-19T09:42:46;31.30;1.00
18281;DHT22;9266;51.132;17.062;2022-08-19T09:45:13;31.40;1.00
18281;DHT22;9266;51.132;17.062;2022-08-19T09:47:42;31.30;1.00
18281;DHT22;9266;51.132;17.062;2022-08-19T09:50:11;31.30;1.00
18281;DHT22;9266;51.132;17.062;2022-08-19T09:52:39;30.90;1.00
18281;DHT22;9266;51.132;17.062;2022-08-19T09:55:09;30.90;1.00
18281;DHT22;9266;51.132;17.062;2022-08-19T09:57:37;31.40;1.00
18281;DHT22;9266;51.132;17.062;2022-08-19T10:00:07;31.20;1.00
18281;DHT22;9266;51.132;17.062;2022-08-19T10:02:35;31.30;1.00
18281;DHT22;9266;51.132;17.062;2022-08-19T10:05:04;31.50;1.00
18281;DHT22;9266;51.132;17.062;2022-08-19T10:07:49;31.40;1.00
18281;DHT22;9266;51.132;17.062;2022-08-19T10:10:17;31.00;1.00
18281;DHT22;9266;51.132;17.062;2022-08-19T10:12:44;30.80;1.00
18281;DHT22;9266;51.132;17.062;2022-08-19T10:15:13;28.90;1.00
18281;DHT22;9266;51.132;17.062;2022-08-19T10:17:40;31.20;1.00
18281;DHT22;9266;51.132;17.062;2022-08-19T10:20:10;31.20;1.00
18281;DHT22;9266;51.132;17.062;2022-08-19T10:22:37;31.20;1.00
18281;DHT22;9266;51.132;17.062;2022-08-19T10:25:06;31.50;1.00
18281;DHT22;9266;51.132;17.062;2022-08-19T10:27:33;31.60;1.00
18281;DHT22;9266;51.132;17.062;2022-08-19T10:30:00;31.90;1.00
18281;DHT22;9266;51.132;17.062;2022-08-19T10:32:27;32.00;1.00
18281;DHT22;9266;51.132;17.062;2022-08-19T10:34:54;32.10;1.00
18281;DHT22;9266;51.132;17.062;2022-08-19T10:37:23;32.20;1.00
18281;DHT22;9266;51.132;17.062;2022-08-19T10:39:50;32.20;1.00
18281;DHT22;9266;51.132;17.062;2022-08-19T10:42:17;32.00;1.00
18281;DHT22;9266;51.132;17.062;2022-08-19T10:44:45;31.80;1.00
18281;DHT22;9266;51.132;17.062;2022-08-19T10:47:14;31.40;1.00
18281;DHT22;9266;51.132;17.062;2022-08-19T10:49:41;31.70;1.00
18281;DHT22;9266;51.132;17.062;2022-08-19T10:52:27;31.80;1.00
18281;DHT22;9266;51.132;17.062;2022-08-19T10:55:04;32.20;1.00
18281;DHT22;9266;51.132;17.062;2022-08-19T10:57:52;32.40;1.00
18281;DHT22;9266;51.132;17.062;2022-08-19T11:00:20;32.70;1.00
18281;DHT22;9266;51.132;17.062;2022-08-19T11:02:48;32.90;1.00
18281;DHT22;9266;51.132;17.062;2022-08-19T11:05:22;33.00;1.00
18281;DHT22;9266;51.132;17.062;2022-08-19T11:08:04;33.70;1.00
18281;DHT22;9266;51.132;17.062;2022-08-19T11:10:48;33.20;1.00
18281;DHT22;9266;51.132;17.062;2022-08-19T11:13:23;33.60;1.00
18281;DHT22;9266;51.132;17.062;2022-08-19T11:16:13;33.70;1.00
18281;DHT22;9266;51.132;17.062;2022-08-19T11:18:58;31.90;1.00
18281;DHT22;9266;51.132;17.062;2022-08-19T11:21:30;33.10;1.00
18281;DHT22;9266;51.132;17.062;2022-08-19T11:24:17;33.20;1.00
18281;DHT22;9266;51.132;17.062;2022-08-19T11:29:40;33.60;1.00
18281;DHT22;9266;51.132;17.062;2022-08-19T11:32:09;33.50;1.00
18281;DHT22;9266;51.132;17.062;2022-08-19T11:34:37;33.70;1.00
18281;DHT22;9266;51.132;17.062;2022-08-19T11:37:06;32.30;1.00
18281;DHT22;9266;51.132;17.062;2022-08-19T11:39:41;33.80;1.00
18281;DHT22;9266;51.132;17.062;2022-08-19T11:42:13;33.80;1.00
18281;DHT22;9266;51.132;17.062;2022-08-19T11:44:54;33.70;1.00
18281;DHT22;9266;51.132;17.062;2022-08-19T11:47:22;33.70;1.00
18281;DHT22;9266;51.132;17.062;2022-08-19T11:49:49;34.00;1.00
18281;DHT22;9266;51.132;17.062;2022-08-19T11:52:19;33.40;1.00
18281;DHT22;9266;51.132;17.062;2022-08-19T11:54:49;33.50;1.00
18281;DHT22;9266;51.132;17.062;2022-08-19T11:57:18;33.90;1.00
18281;DHT22;9266;51.132;17.062;2022-08-19T11:59:51;34.10;1.00
18281;DHT22;9266;51.132;17.062;2022-08-19T12:02:20;34.20;1.00
18281;DHT22;9266;51.132;17.062;2022-08-19T12:04:48;34.40;1.00
18281;DHT22;9266;51.132;17.062;2022-08-19T12:07:16;34.40;1.00
18281;DHT22;9266;51.132;17.062;2022-08-19T12:09:51;34.80;1.00
18281;DHT22;9266;51.132;17.062;2022-08-19T12:12:18;34.70;1.00
18281;DHT22;9266;51.132;17.062;2022-08-19T12:14:46;34.00;1.00
18281;DHT22;9266;51.132;17.062;2022-08-19T12:17:13;34.50;1.00
18281;DHT22;9266;51.132;17.062;2022-08-19T12:19:42;34.30;1.00
18281;DHT22;9266;51.132;17.062;2022-08-19T12:22:09;34.40;1.00
18281;DHT22;9266;51.132;17.062;2022-08-19T12:24:38;34.40;1.00
18281;DHT22;9266;51.132;17.062;2022-08-19T12:27:40;34.20;1.00
18281;DHT22;9266;51.132;17.062;2022-08-19T12:30:11;34.20;1.00
18281;DHT22;9266;51.132;17.062;2022-08-19T12:32:42;34.20;1.00
18281;DHT22;9266;51.132;17.062;2022-08-19T12:35:20;34.30;1.00
18281;DHT22;9266;51.132;17.062;2022-08-19T12:38:12;35.00;1.00
18281;DHT22;9266;51.132;17.062;2022-08-19T12:40:45;34.60;1.00
18281;DHT22;9266;51.132;17.062;2022-08-19T12:43:15;33.60;1.00
18281;DHT22;9266;51.132;17.062;2022-08-19T12:45:55;34.50;1.00
18281;DHT22;9266;51.132;17.062;2022-08-19T12:48:24;34.80;1.00
18281;DHT22;9266;51.132;17.062;2022-08-19T12:50:57;34.60;1.00
18281;DHT22;9266;51.132;17.062;2022-08-19T12:53:28;33.50;1.00
18281;DHT22;9266;51.132;17.062;2022-08-19T12:55:55;34.20;1.00
18281;DHT22;9266;51.132;17.062;2022-08-19T12:58:26;34.00;1.00
18281;DHT22;9266;51.132;17.062;2022-08-19T13:00:54;33.90;1.00
18281;DHT22;9266;51.132;17.062;2022-08-19T13:03:21;33.90;1.00
18281;DHT22;9266;51.132;17.062;2022-08-19T13:05:54;33.90;1.00
18281;DHT22;9266;51.132;17.062;2022-08-19T13:08:22;34.00;1.00
18281;DHT22;9266;51.132;17.062;2022-08-19T13:10:52;33.90;1.00
18281;DHT22;9266;51.132;17.062;2022-08-19T13:13:21;33.80;1.00
18281;DHT22;9266;51.132;17.062;2022-08-19T13:16:00;33.80;1.00
18281;DHT22;9266;51.132;17.062;2022-08-19T13:18:30;33.90;1.00
18281;DHT22;9266;51.132;17.062;2022-08-19T13:21:03;34.10;1.00
18281;DHT22;9266;51.132;17.062;2022-08-19T13:23:33;34.40;1.00
18281;DHT22;9266;51.132;17.062;2022-08-19T13:26:05;34.60;1.00
18281;DHT22;9266;51.132;17.062;2022-08-19T13:28:33;34.20;1.00
18281;DHT22;9266;51.132;17.062;2022-08-19T13:31:17;34.70;1.00
18281;DHT22;9266;51.132;17.062;2022-08-19T13:34:02;35.10;1.00
18281;DHT22;9266;51.132;17.062;2022-08-19T13:36:30;34.70;1.00
18281;DHT22;9266;51.132;17.062;2022-08-19T13:38:57;34.60;1.00
18281;DHT22;9266;51.132;17.062;2022-08-19T13:41:24;34.80;1.00
18281;DHT22;9266;51.132;17.062;2022-08-19T13:43:54;34.90;1.00
18281;DHT22;9266;51.132;17.062;2022-08-19T14:43:33;32.50;99.90
18281;DHT22;9266;51.132;17.062;2022-08-19T14:46:15;32.20;99.90
18281;DHT22;9266;51.132;17.062;2022-08-19T14:48:56;32.10;99.90
18281;DHT22;9266;51.132;17.062;2022-08-19T14:51:37;32.20;99.90
18281;DHT22;9266;51.132;17.062;2022-08-19T14:54:18;32.20;99.90
18281;DHT22;9266;51.132;17.062;2022-08-19T14:56:59;32.30;99.90
18281;DHT22;9266;51.132;17.062;2022-08-19T15:06:18;32.20;99.90
18281;DHT22;9266;51.132;17.062;2022-08-19T15:09:00;31.80;99.90
18281;DHT22;9266;51.132;17.062;2022-08-19T15:11:42;31.70;99.90
18281;DHT22;9266;51.132;17.062;2022-08-19T15:14:10;31.70;99.90
18281;DHT22;9266;51.132;17.062;2022-08-19T15:16:52;31.80;99.90
18281;DHT22;9266;51.132;17.062;2022-08-19T15:19:33;31.70;1.00
18281;DHT22;9266;51.132;17.062;2022-08-19T15:50:43;29.50;1.00
18281;DHT22;9266;51.132;17.062;2022-08-19T15:53:11;29.40;1.00
18281;DHT22;9266;51.132;17.062;2022-08-19T15:55:52;26.90;1.00
18281;DHT22;9266;51.132;17.062;2022-08-19T15:58:33;29.20;1.00
18281;DHT22;9266;51.132;17.062;2022-08-19T16:01:17;29.20;1.00
18281;DHT22;9266;51.132;17.062;2022-08-19T17:20:58;29.90;17.70
18281;DHT22;9266;51.132;17.062;2022-08-19T17:23:43;27.60;61.20
18281;DHT22;9266;51.132;17.062;2022-08-19T17:26:25;27.50;99.90
18281;DHT22;9266;51.132;17.062;2022-08-19T17:29:11;27.40;99.90
18281;DHT22;9266;51.132;17.062;2022-08-19T17:31:58;27.80;99.90
18281;DHT22;9266;51.132;17.062;2022-08-19T17:34:38;27.30;99.90
18281;DHT22;9266;51.132;17.062;2022-08-19T22:36:31;22.40;1.00
18281;DHT22;9266;51.132;17.062;2022-08-19T22:39:12;22.30;1.00
18281;DHT22;9266;51.132;17.062;2022-08-19T22:41:53;22.30;1.00
18281;DHT22;9266;51.132;17.062;2022-08-19T22:44:36;22.10;1.00
18281;DHT22;9266;51.132;17.062;2022-08-19T22:47:17;22.20;1.00
18281;DHT22;9266;51.132;17.062;2022-08-19T23:59:45;21.70;1.00
